sensor_id;sensor_type;location;lat;lon;timestamp;temperature;humidity
7307;DHT22;3694;48.732;9.248;2023-04-08T00:00:13;6.80;99.90
7307;DHT22;3694;48.732;9.248;2023-04-08T00:02:39;6.90;99.90
7307;DHT22;3694;48.732;9.248;2023-04-08T00:05:05;6.90;99.90
7307;DHT22;3694;48.732;9.248;2023-04-08T00:07:31;6.90;99.90
7307;DHT22;3694;48.732;9.248;2023-04-08T00:09:56;6.90;99.90
7307;DHT22;3694;48.732;9.248;2023-04-08T00:12:22;6.90;99.90
7307;DHT22;3694;48.732;9.248;2023-04-08T00:14:47;6.90;99.90
7307;DHT22;3694;48.732;9.248;2023-04-08T00:17:13;6.80;99.90
7307;DHT22;3694;48.732;9.248;2023-04-08T00:19:38;6.90;99.90
7307;DHT22;3694;48.732;9.248;2023-04-08T00:22:04;6.90;99.90
7307;DHT22;3694;48.732;9.248;2023-04-08T00:24:29;6.90;99.90
7307;DHT22;3694;48.732;9.248;2023-04-08T00:26:55;6.80;99.90
7307;DHT22;3694;48.732;9.248;2023-04-08T00:29:21;6.80;99.90
7307;DHT22;3694;48.732;9.248;2023-04-08T00:31:47;6.80;99.90
7307;DHT22;3694;48.732;9.248;2023-04-08T00:34:13;6.70;99.90
7307;DHT22;3694;48.732;9.248;2023-04-08T00:36:38;6.70;99.90
7307;DHT22;3694;48.732;9.248;2023-04-08T00:39:04;6.70;99.90
7307;DHT22;3694;48.732;9.248;2023-04-08T00:41:32;6.70;99.90
7307;DHT22;3694;48.732;9.248;2023-04-08T00:43:58;6.60;99.90
7307;DHT22;3694;48.732;9.248;2023-04-08T00:46:23;6.60;99.90
7307;DHT22;3694;48.732;9.248;2023-04-08T00:48:51;6.60;99.90
7307;DHT22;3694;48.732;9.248;2023-04-08T00:51:17;6.60;99.90
7307;DHT22;3694;48.732;9.248;2023-04-08T00:53:42;6.60;99.90
7307;DHT22;3694;48.732;9.248;2023-04-08T00:56:08;6.60;99.90
7307;DHT22;3694;48.732;9.248;2023-04-08T00:58:34;6.60;99.90
7307;DHT22;3694;48.732;9.248;2023-04-08T01:01:09;6.60;99.90
7307;DHT22;3694;48.732;9.248;2023-04-08T01:04:09;6.70;99.90
7307;DHT22;3694;48.732;9.248;2023-04-08T01:07:23;6.70;99.90
7307;DHT22;3694;48.732;9.248;2023-04-08T01:09:31;6.70;99.90
7307;DHT22;3694;48.732;9.248;2023-04-08T01:12:04;6.70;99.90
7307;DHT22;3694;48.732;9.248;2023-04-08T01:14:34;6.70;99.90
7307;DHT22;3694;48.732;9.248;2023-04-08T01:17:01;6.70;99.90
7307;DHT22;3694;48.732;9.248;2023-04-08T01:19:32;6.70;99.90
7307;DHT22;3694;48.732;9.248;2023-04-08T01:22:04;6.70;99.90
7307;DHT22;3694;48.732;9.248;2023-04-08T01:24:35;6.70;99.90
7307;DHT22;3694;48.732;9.248;2023-04-08T01:27:04;6.70;99.90
7307;DHT22;3694;48.732;9.248;2023-04-08T01:29:33;6.70;99.90
7307;DHT22;3694;48.732;9.248;2023-04-08T01:31:59;6.70;99.90
7307;DHT22;3694;48.732;9.248;2023-04-08T01:34:26;6.70;99.90
7307;DHT22;3694;48.732;9.248;2023-04-08T01:36:54;6.70;99.90
7307;DHT22;3694;48.732;9.248;2023-04-08T01:39:20;6.70;99.90
7307;DHT22;3694;48.732;9.248;2023-04-08T01:41:46;6.70;99.90
7307;DHT22;3694;48.732;9.248;2023-04-08T01:44:13;6.70;99.90
7307;DHT22;3694;48.732;9.248;2023-04-08T01:46:40;6.70;99.90
7307;DHT22;3694;48.732;9.248;2023-04-08T01:49:08;6.70;99.90
7307;DHT22;3694;48.732;9.248;2023-04-08T01:51:33;6.70;99.90
7307;DHT22;3694;48.732;9.248;2023-04-08T01:54:00;6.70;99.90
7307;DHT22;3694;48.732;9.248;2023-04-08T01:56:28;6.70;99.90
7307;DHT22;3694;48.732;9.248;2023-04-08T01:58:57;6.70;99.90
7307;DHT22;3694;48.732;9.248;2023-04-08T02:01:26;6.60;99.90
7307;DHT22;3694;48.732;9.248;2023-04-08T02:03:55;6.60;99.90
7307;DHT22;3694;48.732;9.248;2023-04-08T02:06:22;6.60;99.90
7307;DHT22;3694;48.732;9.248;2023-04-08T02:08:48;6.60;99.90
7307;DHT22;3694;48.732;9.248;2023-04-08T02:11:14;6.50;99.90
7307;DHT22;3694;48.732;9.248;2023-04-08T02:13:40;6.50;99.90
7307;DHT22;3694;48.732;9.248;2023-04-08T02:16:15;6.50;99.90
7307;DHT22;3694;48.732;9.248;2023-04-08T02:18:44;6.50;99.90
7307;DHT22;3694;48.732;9.248;2023-04-08T02:21:17;6.50;99.90
7307;DHT22;3694;48.732;9.248;2023-04-08T02:23:48;6.50;99.90
7307;DHT22;3694;48.732;9.248;2023-04-08T02:26:16;6.50;99.90
7307;DHT22;3694;48.732;9.248;2023-04-08T02:28:43;6.40;99.90
7307;DHT22;3694;48.732;9.248;2023-04-08T02:31:10;6.40;99.90
7307;DHT22;3694;48.732;9.248;2023-04-08T02:33:39;6.40;99.90
7307;DHT22;3694;48.732;9.248;2023-04-08T02:36:05;6.40;99.90
7307;DHT22;3694;48.732;9.248;2023-04-08T02:38:32;6.40;99.90
7307;DHT22;3694;48.732;9.248;2023-04-08T02:40:57;6.40;99.90
7307;DHT22;3694;48.732;9.248;2023-04-08T02:43:23;6.40;99.90
7307;DHT22;3694;48.732;9.248;2023-04-08T02:45:56;6.30;99.90
7307;DHT22;3694;48.732;9.248;2023-04-08T02:48:22;6.40;99.90
7307;DHT22;3694;48.732;9.248;2023-04-08T02:50:47;6.40;99.90
7307;DHT22;3694;48.732;9.248;2023-04-08T02:53:13;6.30;99.90
7307;DHT22;3694;48.732;9.248;2023-04-08T02:55:38;6.20;99.90
7307;DHT22;3694;48.732;9.248;2023-04-08T02:58:04;6.30;99.90
7307;DHT22;3694;48.732;9.248;2023-04-08T03:00:30;6.30;99.90
7307;DHT22;3694;48.732;9.248;2023-04-08T03:02:55;6.20;99.90
7307;DHT22;3694;48.732;9.248;2023-04-08T03:05:21;6.20;99.90
7307;DHT22;3694;48.732;9.248;2023-04-08T03:07:46;6.20;99.90
7307;DHT22;3694;48.732;9.248;2023-04-08T03:10:12;6.20;99.90
7307;DHT22;3694;48.732;9.248;2023-04-08T03:12:38;6.20;99.90
7307;DHT22;3694;48.732;9.248;2023-04-08T03:15:03;6.20;99.90
7307;DHT22;3694;48.732;9.248;2023-04-08T03:17:29;6.20;99.90
7307;DHT22;3694;48.732;9.248;2023-04-08T03:19:57;6.20;99.90
7307;DHT22;3694;48.732;9.248;2023-04-08T03:22:23;6.20;99.90
7307;DHT22;3694;48.732;9.248;2023-04-08T03:24:49;6.20;99.90
7307;DHT22;3694;48.732;9.248;2023-04-08T03:27:14;6.20;99.90
7307;DHT22;3694;48.732;9.248;2023-04-08T03:29:40;6.20;99.90
7307;DHT22;3694;48.732;9.248;2023-04-08T03:32:06;6.20;99.90
7307;DHT22;3694;48.732;9.248;2023-04-08T03:34:33;6.20;99.90
7307;DHT22;3694;48.732;9.248;2023-04-08T03:36:58;6.20;99.90
7307;DHT22;3694;48.732;9.248;2023-04-08T03:39:24;6.10;99.90
7307;DHT22;3694;48.732;9.248;2023-04-08T03:41:49;6.20;99.90
7307;DHT22;3694;48.732;9.248;2023-04-08T03:44:15;6.10;99.90
7307;DHT22;3694;48.732;9.248;2023-04-08T03:46:41;6.00;99.90
7307;DHT22;3694;48.732;9.248;2023-04-08T03:49:06;6.00;99.90
7307;DHT22;3694;48.732;9.248;2023-04-08T03:51:32;6.00;99.90
7307;DHT22;3694;48.732;9.248;2023-04-08T03:53:57;6.00;99.90
7307;DHT22;3694;48.732;9.248;2023-04-08T03:56:23;6.00;99.90
7307;DHT22;3694;48.732;9.248;2023-04-08T03:58:49;6.00;99.90
7307;DHT22;3694;48.732;9.248;2023-04-08T04:01:15;6.00;99.90
7307;DHT22;3694;48.732;9.248;2023-04-08T04:03:41;6.00;99.90
7307;DHT22;3694;48.732;9.248;2023-04-08T04:06:06;5.90;99.90
7307;DHT22;3694;48.732;9.248;2023-04-08T04:08:32;5.90;99.90
7307;DHT22;3694;48.732;9.248;2023-04-08T04:10:58;5.90;99.90
7307;DHT22;3694;48.732;9.248;2023-04-08T04:13:24;5.90;99.90
7307;DHT22;3694;48.732;9.248;2023-04-08T04:15:49;5.90;99.90
7307;DHT22;3694;48.732;9.248;2023-04-08T04:18:15;5.90;99.90
7307;DHT22;3694;48.732;9.248;2023-04-08T04:20:41;5.80;99.90
7307;DHT22;3694;48.732;9.248;2023-04-08T04:23:07;5.90;99.90
7307;DHT22;3694;48.732;9.248;2023-04-08T04:25:33;6.00;99.90
7307;DHT22;3694;48.732;9.248;2023-04-08T04:27:59;6.00;99.90
7307;DHT22;3694;48.732;9.248;2023-04-08T04:30:24;6.00;99.90
7307;DHT22;3694;48.732;9.248;2023-04-08T04:32:50;6.00;99.90
7307;DHT22;3694;48.732;9.248;2023-04-08T04:35:15;6.00;99.90
7307;DHT22;3694;48.732;9.248;2023-04-08T04:37:41;6.20;99.90
7307;DHT22;3694;48.732;9.248;2023-04-08T04:40:07;6.10;99.90
7307;DHT22;3694;48.732;9.248;2023-04-08T04:42:33;6.10;99.90
7307;DHT22;3694;48.732;9.248;2023-04-08T04:44:58;6.10;99.90
7307;DHT22;3694;48.732;9.248;2023-04-08T04:47:24;6.20;99.90
7307;DHT22;3694;48.732;9.248;2023-04-08T04:49:50;6.20;99.90
7307;DHT22;3694;48.732;9.248;2023-04-08T04:52:16;6.10;99.90
7307;DHT22;3694;48.732;9.248;2023-04-08T04:54:41;6.10;99.90
7307;DHT22;3694;48.732;9.248;2023-04-08T04:57:07;6.00;99.90
7307;DHT22;3694;48.732;9.248;2023-04-08T04:59:32;6.00;99.90
7307;DHT22;3694;48.732;9.248;2023-04-08T05:01:58;6.10;99.90
7307;DHT22;3694;48.732;9.248;2023-04-08T05:04:24;6.00;99.90
7307;DHT22;3694;48.732;9.248;2023-04-08T05:06:50;6.00;99.90
7307;DHT22;3694;48.732;9.248;2023-04-08T05:09:15;6.00;99.90
7307;DHT22;3694;48.732;9.248;2023-04-08T05:11:41;5.90;99.90
7307;DHT22;3694;48.732;9.248;2023-04-08T05:14:06;6.00;99.90
7307;DHT22;3694;48.732;9.248;2023-04-08T05:16:33;5.90;99.90
7307;DHT22;3694;48.732;9.248;2023-04-08T05:18:58;5.90;99.90
7307;DHT22;3694;48.732;9.248;2023-04-08T05:21:24;5.90;99.90
7307;DHT22;3694;48.732;9.248;2023-04-08T05:23:50;6.00;99.90
7307;DHT22;3694;48.732;9.248;2023-04-08T05:26:18;5.90;99.90
7307;DHT22;3694;48.732;9.248;2023-04-08T05:28:44;6.00;99.90
7307;DHT22;3694;48.732;9.248;2023-04-08T05:31:09;6.00;99.90
7307;DHT22;3694;48.732;9.248;2023-04-08T05:33:36;6.00;99.90
7307;DHT22;3694;48.732;9.248;2023-04-08T05:36:01;6.00;99.90
7307;DHT22;3694;48.732;9.248;2023-04-08T05:38:27;6.00;99.90
7307;DHT22;3694;48.732;9.248;2023-04-08T05:40:52;6.00;99.90
7307;DHT22;3694;48.732;9.248;2023-04-08T05:43:18;6.00;99.90
7307;DHT22;3694;48.732;9.248;2023-04-08T05:45:43;6.10;99.90
7307;DHT22;3694;48.732;9.248;2023-04-08T05:48:09;6.20;99.90
7307;DHT22;3694;48.732;9.248;2023-04-08T05:50:35;6.20;99.90
7307;DHT22;3694;48.732;9.248;2023-04-08T05:53:00;5.90;99.90
7307;DHT22;3694;48.732;9.248;2023-04-08T05:55:26;6.30;99.90
7307;DHT22;3694;48.732;9.248;2023-04-08T05:57:51;6.30;99.90
7307;DHT22;3694;48.732;9.248;2023-04-08T06:00:17;6.40;99.90
7307;DHT22;3694;48.732;9.248;2023-04-08T06:02:42;6.40;99.90
7307;DHT22;3694;48.732;9.248;2023-04-08T06:05:08;6.50;99.90
7307;DHT22;3694;48.732;9.248;2023-04-08T06:07:34;6.50;99.90
7307;DHT22;3694;48.732;9.248;2023-04-08T06:09:59;6.40;99.90
7307;DHT22;3694;48.732;9.248;2023-04-08T06:12:25;6.40;99.90
7307;DHT22;3694;48.732;9.248;2023-04-08T06:14:54;6.40;99.90
7307;DHT22;3694;48.732;9.248;2023-04-08T06:17:20;6.40;99.90
7307;DHT22;3694;48.732;9.248;2023-04-08T06:19:46;6.40;99.90
7307;DHT22;3694;48.732;9.248;2023-04-08T06:22:11;6.40;99.90
7307;DHT22;3694;48.732;9.248;2023-04-08T06:24:37;6.40;99.90
7307;DHT22;3694;48.732;9.248;2023-04-08T06:27:02;6.50;99.90
7307;DHT22;3694;48.732;9.248;2023-04-08T06:29:28;6.50;99.90
7307;DHT22;3694;48.732;9.248;2023-04-08T06:31:54;6.60;99.90
7307;DHT22;3694;48.732;9.248;2023-04-08T06:34:20;6.70;99.90
7307;DHT22;3694;48.732;9.248;2023-04-08T06:36:45;6.80;99.90
7307;DHT22;3694;48.732;9.248;2023-04-08T06:39:11;6.90;99.90
7307;DHT22;3694;48.732;9.248;2023-04-08T06:41:37;6.90;99.90
7307;DHT22;3694;48.732;9.248;2023-04-08T06:44:02;6.90;99.90
7307;DHT22;3694;48.732;9.248;2023-04-08T06:46:28;7.00;99.90
7307;DHT22;3694;48.732;9.248;2023-04-08T06:48:53;7.10;99.90
7307;DHT22;3694;48.732;9.248;2023-04-08T06:51:19;7.20;99.90
7307;DHT22;3694;48.732;9.248;2023-04-08T06:53:45;7.30;99.90
7307;DHT22;3694;48.732;9.248;2023-04-08T06:56:10;7.40;99.90
7307;DHT22;3694;48.732;9.248;2023-04-08T06:58:36;7.50;99.90
7307;DHT22;3694;48.732;9.248;2023-04-08T07:01:02;7.50;99.90
7307;DHT22;3694;48.732;9.248;2023-04-08T07:03:27;7.60;99.90
7307;DHT22;3694;48.732;9.248;2023-04-08T07:05:53;7.50;99.90
7307;DHT22;3694;48.732;9.248;2023-04-08T07:08:18;7.40;99.90
7307;DHT22;3694;48.732;9.248;2023-04-08T07:10:44;7.30;99.90
7307;DHT22;3694;48.732;9.248;2023-04-08T07:13:09;7.10;99.90
7307;DHT22;3694;48.732;9.248;2023-04-08T07:15:36;7.10;99.90
7307;DHT22;3694;48.732;9.248;2023-04-08T07:18:01;7.10;99.90
7307;DHT22;3694;48.732;9.248;2023-04-08T07:20:29;7.20;99.90
7307;DHT22;3694;48.732;9.248;2023-04-08T07:22:54;7.50;99.90
7307;DHT22;3694;48.732;9.248;2023-04-08T07:25:20;7.50;99.90
7307;DHT22;3694;48.732;9.248;2023-04-08T07:27:45;7.50;99.90
7307;DHT22;3694;48.732;9.248;2023-04-08T07:30:11;7.50;99.90
7307;DHT22;3694;48.732;9.248;2023-04-08T07:32:37;7.60;99.90
7307;DHT22;3694;48.732;9.248;2023-04-08T07:35:02;7.60;99.90
7307;DHT22;3694;48.732;9.248;2023-04-08T07:37:28;7.70;99.90
7307;DHT22;3694;48.732;9.248;2023-04-08T07:39:54;7.80;99.90
7307;DHT22;3694;48.732;9.248;2023-04-08T07:42:20;8.00;99.90
7307;DHT22;3694;48.732;9.248;2023-04-08T07:44:46;8.20;99.90
7307;DHT22;3694;48.732;9.248;2023-04-08T07:47:11;8.40;99.90
7307;DHT22;3694;48.732;9.248;2023-04-08T07:49:37;8.50;99.90
7307;DHT22;3694;48.732;9.248;2023-04-08T07:52:04;8.60;99.90
7307;DHT22;3694;48.732;9.248;2023-04-08T07:54:30;8.70;99.90
7307;DHT22;3694;48.732;9.248;2023-04-08T07:56:57;8.80;99.90
7307;DHT22;3694;48.732;9.248;2023-04-08T07:59:24;8.80;99.90
7307;DHT22;3694;48.732;9.248;2023-04-08T08:01:49;8.80;99.90
7307;DHT22;3694;48.732;9.248;2023-04-08T08:04:15;8.70;99.90
7307;DHT22;3694;48.732;9.248;2023-04-08T08:06:40;8.80;99.90
7307;DHT22;3694;48.732;9.248;2023-04-08T08:09:06;8.90;99.90
7307;DHT22;3694;48.732;9.248;2023-04-08T08:11:31;9.10;99.90
7307;DHT22;3694;48.732;9.248;2023-04-08T08:13:57;9.20;99.90
7307;DHT22;3694;48.732;9.248;2023-04-08T08:16:23;9.30;99.90
7307;DHT22;3694;48.732;9.248;2023-04-08T08:18:51;9.50;99.90
7307;DHT22;3694;48.732;9.248;2023-04-08T08:21:17;9.50;99.90
7307;DHT22;3694;48.732;9.248;2023-04-08T08:23:43;9.30;99.90
7307;DHT22;3694;48.732;9.248;2023-04-08T08:26:09;9.40;99.90
7307;DHT22;3694;48.732;9.248;2023-04-08T08:28:35;9.60;99.90
7307;DHT22;3694;48.732;9.248;2023-04-08T08:31:01;9.50;99.90
7307;DHT22;3694;48.732;9.248;2023-04-08T08:33:27;9.70;99.90
7307;DHT22;3694;48.732;9.248;2023-04-08T08:35:53;9.90;99.90
7307;DHT22;3694;48.732;9.248;2023-04-08T08:38:19;10.10;99.90
7307;DHT22;3694;48.732;9.248;2023-04-08T08:40:45;10.20;99.30
7307;DHT22;3694;48.732;9.248;2023-04-08T08:43:11;9.90;99.90
7307;DHT22;3694;48.732;9.248;2023-04-08T08:45:40;9.80;99.90
7307;DHT22;3694;48.732;9.248;2023-04-08T08:48:06;9.90;99.90
7307;DHT22;3694;48.732;9.248;2023-04-08T08:50:33;10.00;99.90
7307;DHT22;3694;48.732;9.248;2023-04-08T08:52:59;10.00;99.90
7307;DHT22;3694;48.732;9.248;2023-04-08T08:55:24;10.00;99.90
7307;DHT22;3694;48.732;9.248;2023-04-08T08:57:50;10.20;99.50
7307;DHT22;3694;48.732;9.248;2023-04-08T09:00:16;10.50;98.00
7307;DHT22;3694;48.732;9.248;2023-04-08T09:02:42;10.60;98.40
7307;DHT22;3694;48.732;9.248;2023-04-08T09:05:08;10.70;97.80
7307;DHT22;3694;48.732;9.248;2023-04-08T09:07:37;11.00;97.30
7307;DHT22;3694;48.732;9.248;2023-04-08T09:10:06;11.20;97.10
7307;DHT22;3694;48.732;9.248;2023-04-08T09:12:32;11.40;97.90
7307;DHT22;3694;48.732;9.248;2023-04-08T09:15:08;11.80;96.20
7307;DHT22;3694;48.732;9.248;2023-04-08T09:17:36;11.90;94.60
7307;DHT22;3694;48.732;9.248;2023-04-08T09:20:09;12.10;95.10
7307;DHT22;3694;48.732;9.248;2023-04-08T09:22:59;12.00;95.10
7307;DHT22;3694;48.732;9.248;2023-04-08T09:25:27;12.10;95.50
7307;DHT22;3694;48.732;9.248;2023-04-08T09:27:53;12.10;94.00
7307;DHT22;3694;48.732;9.248;2023-04-08T09:30:21;12.10;93.30
7307;DHT22;3694;48.732;9.248;2023-04-08T09:32:52;12.00;94.60
7307;DHT22;3694;48.732;9.248;2023-04-08T09:35:19;12.10;94.60
7307;DHT22;3694;48.732;9.248;2023-04-08T09:37:45;12.30;94.10
7307;DHT22;3694;48.732;9.248;2023-04-08T09:40:11;12.30;93.00
7307;DHT22;3694;48.732;9.248;2023-04-08T09:42:39;12.00;91.70
7307;DHT22;3694;48.732;9.248;2023-04-08T09:45:06;12.20;91.50
7307;DHT22;3694;48.732;9.248;2023-04-08T09:47:41;12.30;92.80
7307;DHT22;3694;48.732;9.248;2023-04-08T09:50:08;12.40;92.80
7307;DHT22;3694;48.732;9.248;2023-04-08T09:52:44;12.40;91.80
7307;DHT22;3694;48.732;9.248;2023-04-08T09:55:12;12.30;91.70
7307;DHT22;3694;48.732;9.248;2023-04-08T09:57:57;12.30;91.60
7307;DHT22;3694;48.732;9.248;2023-04-08T10:00:32;12.60;90.10
7307;DHT22;3694;48.732;9.248;2023-04-08T10:03:05;12.90;89.30
7307;DHT22;3694;48.732;9.248;2023-04-08T10:05:40;12.80;90.20
7307;DHT22;3694;48.732;9.248;2023-04-08T10:08:06;12.70;90.60
7307;DHT22;3694;48.732;9.248;2023-04-08T10:10:33;12.70;91.00
7307;DHT22;3694;48.732;9.248;2023-04-08T10:13:00;12.80;88.80
7307;DHT22;3694;48.732;9.248;2023-04-08T10:15:28;12.80;87.00
7307;DHT22;3694;48.732;9.248;2023-04-08T10:20:44;13.00;84.50
7307;DHT22;3694;48.732;9.248;2023-04-08T10:23:17;12.70;87.10
7307;DHT22;3694;48.732;9.248;2023-04-08T10:25:43;12.60;84.60
7307;DHT22;3694;48.732;9.248;2023-04-08T10:30:54;12.30;84.50
7307;DHT22;3694;48.732;9.248;2023-04-08T10:33:32;12.00;84.00
7307;DHT22;3694;48.732;9.248;2023-04-08T10:36:11;11.70;83.80
7307;DHT22;3694;48.732;9.248;2023-04-08T10:38:40;11.60;84.30
7307;DHT22;3694;48.732;9.248;2023-04-08T10:41:08;11.40;83.90
7307;DHT22;3694;48.732;9.248;2023-04-08T10:43:35;10.90;87.00
7307;DHT22;3694;48.732;9.248;2023-04-08T10:46:01;10.80;83.80
7307;DHT22;3694;48.732;9.248;2023-04-08T10:48:27;10.70;85.20
7307;DHT22;3694;48.732;9.248;2023-04-08T10:50:58;10.60;88.30
7307;DHT22;3694;48.732;9.248;2023-04-08T10:53:27;10.50;84.30
7307;DHT22;3694;48.732;9.248;2023-04-08T10:55:54;10.40;85.90
7307;DHT22;3694;48.732;9.248;2023-04-08T10:58:19;10.30;85.40
7307;DHT22;3694;48.732;9.248;2023-04-08T11:00:45;10.30;86.50
7307;DHT22;3694;48.732;9.248;2023-04-08T11:03:11;10.30;88.30
7307;DHT22;3694;48.732;9.248;2023-04-08T11:05:37;10.20;86.20
7307;DHT22;3694;48.732;9.248;2023-04-08T11:08:04;10.10;88.20
7307;DHT22;3694;48.732;9.248;2023-04-08T11:10:30;10.00;83.80
7307;DHT22;3694;48.732;9.248;2023-04-08T11:12:56;10.00;85.00
7307;DHT22;3694;48.732;9.248;2023-04-08T11:15:25;10.10;84.70
7307;DHT22;3694;48.732;9.248;2023-04-08T11:17:53;10.30;85.90
7307;DHT22;3694;48.732;9.248;2023-04-08T11:20:19;10.40;85.80
7307;DHT22;3694;48.732;9.248;2023-04-08T11:22:46;10.50;84.70
7307;DHT22;3694;48.732;9.248;2023-04-08T11:25:12;10.60;85.30
7307;DHT22;3694;48.732;9.248;2023-04-08T11:27:38;10.80;82.70
7307;DHT22;3694;48.732;9.248;2023-04-08T11:30:05;10.90;84.50
7307;DHT22;3694;48.732;9.248;2023-04-08T11:32:31;11.00;83.70
7307;DHT22;3694;48.732;9.248;2023-04-08T11:35:01;10.90;84.60
7307;DHT22;3694;48.732;9.248;2023-04-08T11:37:39;10.90;82.10
7307;DHT22;3694;48.732;9.248;2023-04-08T11:40:11;10.90;82.80
7307;DHT22;3694;48.732;9.248;2023-04-08T11:42:38;10.70;81.90
7307;DHT22;3694;48.732;9.248;2023-04-08T11:45:14;10.60;81.30
7307;DHT22;3694;48.732;9.248;2023-04-08T11:47:41;10.50;80.10
7307;DHT22;3694;48.732;9.248;2023-04-08T11:50:06;10.50;79.70
7307;DHT22;3694;48.732;9.248;2023-04-08T11:52:46;10.50;81.90
7307;DHT22;3694;48.732;9.248;2023-04-08T11:55:29;10.30;82.90
7307;DHT22;3694;48.732;9.248;2023-04-08T11:57:56;10.30;82.70
7307;DHT22;3694;48.732;9.248;2023-04-08T12:00:22;10.40;84.70
7307;DHT22;3694;48.732;9.248;2023-04-08T12:02:48;10.50;85.20
7307;DHT22;3694;48.732;9.248;2023-04-08T12:05:17;10.70;86.80
7307;DHT22;3694;48.732;9.248;2023-04-08T12:07:43;10.70;84.00
7307;DHT22;3694;48.732;9.248;2023-04-08T12:10:10;10.70;84.00
7307;DHT22;3694;48.732;9.248;2023-04-08T12:12:36;10.60;82.40
7307;DHT22;3694;48.732;9.248;2023-04-08T12:15:02;10.60;84.50
7307;DHT22;3694;48.732;9.248;2023-04-08T12:17:27;10.60;86.00
7307;DHT22;3694;48.732;9.248;2023-04-08T12:19:53;10.80;85.70
7307;DHT22;3694;48.732;9.248;2023-04-08T12:22:18;10.70;83.60
7307;DHT22;3694;48.732;9.248;2023-04-08T12:24:44;10.70;84.20
7307;DHT22;3694;48.732;9.248;2023-04-08T12:27:09;11.00;85.30
7307;DHT22;3694;48.732;9.248;2023-04-08T12:29:35;11.10;83.10
7307;DHT22;3694;48.732;9.248;2023-04-08T12:32:01;11.10;85.00
7307;DHT22;3694;48.732;9.248;2023-04-08T12:34:28;11.20;83.70
7307;DHT22;3694;48.732;9.248;2023-04-08T12:36:54;11.10;83.70
7307;DHT22;3694;48.732;9.248;2023-04-08T12:39:20;11.10;86.60
7307;DHT22;3694;48.732;9.248;2023-04-08T12:41:46;11.20;84.00
7307;DHT22;3694;48.732;9.248;2023-04-08T12:44:12;11.30;83.60
7307;DHT22;3694;48.732;9.248;2023-04-08T12:46:37;11.20;82.10
7307;DHT22;3694;48.732;9.248;2023-04-08T12:49:03;11.40;84.00
7307;DHT22;3694;48.732;9.248;2023-04-08T12:51:29;11.60;83.60
7307;DHT22;3694;48.732;9.248;2023-04-08T12:53:55;11.60;83.10
7307;DHT22;3694;48.732;9.248;2023-04-08T12:56:21;11.50;81.70
7307;DHT22;3694;48.732;9.248;2023-04-08T12:58:47;11.40;84.40
7307;DHT22;3694;48.732;9.248;2023-04-08T13:01:12;11.10;83.10
7307;DHT22;3694;48.732;9.248;2023-04-08T13:03:38;11.00;84.90
7307;DHT22;3694;48.732;9.248;2023-04-08T13:06:04;10.90;83.80
7307;DHT22;3694;48.732;9.248;2023-04-08T13:08:29;11.00;86.20
7307;DHT22;3694;48.732;9.248;2023-04-08T13:10:55;10.90;85.30
7307;DHT22;3694;48.732;9.248;2023-04-08T13:13:21;11.00;86.70
7307;DHT22;3694;48.732;9.248;2023-04-08T13:15:46;11.00;85.90
7307;DHT22;3694;48.732;9.248;2023-04-08T13:18:12;10.90;84.20
7307;DHT22;3694;48.732;9.248;2023-04-08T13:20:38;10.80;84.40
7307;DHT22;3694;48.732;9.248;2023-04-08T13:23:04;10.80;84.80
7307;DHT22;3694;48.732;9.248;2023-04-08T13:25:30;10.70;85.50
7307;DHT22;3694;48.732;9.248;2023-04-08T13:27:56;10.50;86.60
7307;DHT22;3694;48.732;9.248;2023-04-08T13:30:21;10.40;86.80
7307;DHT22;3694;48.732;9.248;2023-04-08T13:32:47;10.30;87.90
7307;DHT22;3694;48.732;9.248;2023-04-08T13:35:13;10.30;87.10
7307;DHT22;3694;48.732;9.248;2023-04-08T13:37:38;10.30;85.80
7307;DHT22;3694;48.732;9.248;2023-04-08T13:40:04;10.20;87.50
7307;DHT22;3694;48.732;9.248;2023-04-08T13:42:30;10.00;87.20
7307;DHT22;3694;48.732;9.248;2023-04-08T13:44:57;10.00;87.40
7307;DHT22;3694;48.732;9.248;2023-04-08T13:47:23;10.00;88.90
7307;DHT22;3694;48.732;9.248;2023-04-08T13:49:49;10.10;89.10
7307;DHT22;3694;48.732;9.248;2023-04-08T13:52:14;10.20;89.30
7307;DHT22;3694;48.732;9.248;2023-04-08T13:54:40;10.30;88.40
7307;DHT22;3694;48.732;9.248;2023-04-08T13:57:06;10.40;89.20
7307;DHT22;3694;48.732;9.248;2023-04-08T13:59:32;10.70;90.20
7307;DHT22;3694;48.732;9.248;2023-04-08T14:01:58;10.40;88.30
7307;DHT22;3694;48.732;9.248;2023-04-08T14:04:23;10.30;89.80
7307;DHT22;3694;48.732;9.248;2023-04-08T14:06:49;10.20;89.10
7307;DHT22;3694;48.732;9.248;2023-04-08T14:09:19;10.40;88.40
7307;DHT22;3694;48.732;9.248;2023-04-08T14:11:45;10.30;88.80
7307;DHT22;3694;48.732;9.248;2023-04-08T14:14:11;10.30;88.70
7307;DHT22;3694;48.732;9.248;2023-04-08T14:16:37;10.60;90.50
7307;DHT22;3694;48.732;9.248;2023-04-08T14:19:03;10.70;90.20
7307;DHT22;3694;48.732;9.248;2023-04-08T14:21:29;10.80;90.00
7307;DHT22;3694;48.732;9.248;2023-04-08T14:23:56;10.90;88.80
7307;DHT22;3694;48.732;9.248;2023-04-08T14:26:22;10.90;89.40
7307;DHT22;3694;48.732;9.248;2023-04-08T14:28:48;10.80;89.90
7307;DHT22;3694;48.732;9.248;2023-04-08T14:31:13;10.70;89.50
7307;DHT22;3694;48.732;9.248;2023-04-08T14:33:40;10.60;88.00
7307;DHT22;3694;48.732;9.248;2023-04-08T14:36:07;10.50;89.60
7307;DHT22;3694;48.732;9.248;2023-04-08T14:38:33;10.60;90.50
7307;DHT22;3694;48.732;9.248;2023-04-08T14:40:58;10.50;90.70
7307;DHT22;3694;48.732;9.248;2023-04-08T14:43:24;10.40;89.60
7307;DHT22;3694;48.732;9.248;2023-04-08T14:45:50;10.20;90.20
7307;DHT22;3694;48.732;9.248;2023-04-08T14:48:18;10.20;90.40
7307;DHT22;3694;48.732;9.248;2023-04-08T14:50:44;10.20;90.40
7307;DHT22;3694;48.732;9.248;2023-04-08T14:53:09;10.20;90.40
7307;DHT22;3694;48.732;9.248;2023-04-08T14:55:35;10.30;90.70
7307;DHT22;3694;48.732;9.248;2023-04-08T14:58:01;10.20;89.20
7307;DHT22;3694;48.732;9.248;2023-04-08T15:00:27;10.10;90.10
7307;DHT22;3694;48.732;9.248;2023-04-08T15:02:52;10.00;88.80
7307;DHT22;3694;48.732;9.248;2023-04-08T15:05:18;10.10;90.70
7307;DHT22;3694;48.732;9.248;2023-04-08T15:07:43;10.30;90.20
7307;DHT22;3694;48.732;9.248;2023-04-08T15:10:11;10.40;88.90
7307;DHT22;3694;48.732;9.248;2023-04-08T15:12:36;10.30;89.50
7307;DHT22;3694;48.732;9.248;2023-04-08T15:15:02;10.20;89.10
7307;DHT22;3694;48.732;9.248;2023-04-08T15:17:29;10.20;89.90
7307;DHT22;3694;48.732;9.248;2023-04-08T15:19:54;10.10;90.20
7307;DHT22;3694;48.732;9.248;2023-04-08T15:22:23;10.00;88.30
7307;DHT22;3694;48.732;9.248;2023-04-08T15:24:49;9.90;88.50
7307;DHT22;3694;48.732;9.248;2023-04-08T15:27:14;9.90;90.20
7307;DHT22;3694;48.732;9.248;2023-04-08T15:29:40;9.80;90.20
7307;DHT22;3694;48.732;9.248;2023-04-08T15:32:06;9.80;89.50
7307;DHT22;3694;48.732;9.248;2023-04-08T15:34:32;9.80;90.30
7307;DHT22;3694;48.732;9.248;2023-04-08T15:36:57;9.80;90.50
7307;DHT22;3694;48.732;9.248;2023-04-08T15:39:23;9.80;90.40
7307;DHT22;3694;48.732;9.248;2023-04-08T15:41:48;9.80;90.20
7307;DHT22;3694;48.732;9.248;2023-04-08T15:44:14;9.80;90.20
7307;DHT22;3694;48.732;9.248;2023-04-08T15:46:40;9.70;90.00
7307;DHT22;3694;48.732;9.248;2023-04-08T15:49:06;9.70;91.00
7307;DHT22;3694;48.732;9.248;2023-04-08T15:51:35;9.50;90.80
7307;DHT22;3694;48.732;9.248;2023-04-08T15:54:01;9.50;91.10
7307;DHT22;3694;48.732;9.248;2023-04-08T15:56:26;9.40;90.80
7307;DHT22;3694;48.732;9.248;2023-04-08T15:58:54;9.40;91.80
7307;DHT22;3694;48.732;9.248;2023-04-08T16:01:21;9.40;91.40
7307;DHT22;3694;48.732;9.248;2023-04-08T16:03:47;9.30;91.60
7307;DHT22;3694;48.732;9.248;2023-04-08T16:06:12;9.30;91.40
7307;DHT22;3694;48.732;9.248;2023-04-08T16:08:38;9.40;91.50
7307;DHT22;3694;48.732;9.248;2023-04-08T16:11:04;9.40;91.80
7307;DHT22;3694;48.732;9.248;2023-04-08T16:13:32;9.50;91.80